FredonyerEastRWIS Atmospheric Data: 11/21/2020 Summary  Detailed Graphs  Station List

  Temperature     Wind Precipitation Visibility
Timestamp Air Wet
Bulb
Dew-
point
24-hr
Max
24-hr
Min
Relative
Humidity
Atmospheric
Pressure
Avg
Speed
Avg
Dir
Spot
Speed
Spot
Dir
Max
Speed
Max
Dir
  Rate Situation Start End 1 hr 3 hr 6 hr 12 hr 24 hr   Situation
Date Time °F °F °F °F °F % in Hg mph ° mph ° mph ° Y/N in/hr text Date Time Date Time in in in in in mi text
11/21/2020 12:08 AM 21.20 20.84 20.30 42.26 19.76 96.0 Not Reported 0.00 N 0.00 S 0.00 S No 0.000 No Precipitation 11/18/2020 08:06 PM 11/18/2020 08:11 PM 0.000 0.000 0.000 0.000 0.000 Not Reported Not Reported
11/21/2020 12:23 AM 20.84 20.66 19.94 42.26 19.76 96.0 Not Reported 0.00 N 0.00 S 0.00 S No 0.000 No Precipitation 11/18/2020 08:06 PM 11/18/2020 08:11 PM 0.000 0.000 0.000 0.000 0.000 Not Reported Not Reported
11/21/2020 12:38 AM 20.66 20.30 19.58 42.26 19.76 95.0 Not Reported 0.00 N 0.00 S 0.00 S No 0.000 No Precipitation 11/18/2020 08:06 PM 11/18/2020 08:11 PM 0.000 0.000 0.000 0.000 0.000 Not Reported Not Reported
11/21/2020 12:53 AM 20.48 20.12 19.40 42.26 19.76 95.0 Not Reported 0.00 N 0.00 S 0.00 S No 0.000 No Precipitation 11/18/2020 08:06 PM 11/18/2020 08:11 PM 0.000 0.000 0.000 0.000 0.000 Not Reported Not Reported
11/21/2020 01:08 AM 20.30 19.94 19.22 42.26 19.76 95.0 Not Reported 0.00 N 0.00 S 0.00 S No 0.000 No Precipitation 11/18/2020 08:06 PM 11/18/2020 08:11 PM 0.000 0.000 0.000 0.000 0.000 Not Reported Not Reported
11/21/2020 01:23 AM 20.12 19.76 19.04 42.26 19.76 95.0 Not Reported 0.00 N 0.00 S 0.00 S No 0.000 No Precipitation 11/18/2020 08:06 PM 11/18/2020 08:11 PM 0.000 0.000 0.000 0.000 0.000 Not Reported Not Reported
11/21/2020 01:38 AM 19.94 19.76 18.86 42.26 19.76 95.0 Not Reported 0.00 N 0.00 S 0.00 S No 0.000 No Precipitation 11/18/2020 08:06 PM 11/18/2020 08:11 PM 0.000 0.000 0.000 0.000 0.000 Not Reported Not Reported
11/21/2020 01:53 AM 19.94 19.76 18.86 42.26 19.76 95.0 Not Reported 0.00 N 0.00 S 0.00 S No 0.000 No Precipitation 11/18/2020 08:06 PM 11/18/2020 08:11 PM 0.000 0.000 0.000 0.000 0.000 Not Reported Not Reported
11/21/2020 02:08 AM 19.76 19.40 18.50 42.26 19.76 95.0 Not Reported 0.00 S 0.00 S 0.00 S No 0.000 No Precipitation 11/18/2020 08:06 PM 11/18/2020 08:11 PM 0.000 0.000 0.000 0.000 0.000 Not Reported Not Reported
11/21/2020 02:23 AM 19.76 19.40 18.50 42.26 19.76 95.0 Not Reported 0.00 N 0.00 S 0.00 S No 0.000 No Precipitation 11/18/2020 08:06 PM 11/18/2020 08:11 PM 0.000 0.000 0.000 0.000 0.000 Not Reported Not Reported
11/21/2020 02:39 AM 19.76 19.40 18.50 42.26 19.58 95.0 Not Reported 0.00 N 0.00 S 0.00 S No 0.000 No Precipitation 11/18/2020 08:06 PM 11/18/2020 08:11 PM 0.000 0.000 0.000 0.000 0.000 Not Reported Not Reported
11/21/2020 02:53 AM 19.58 19.22 18.32 42.26 19.58 94.0 Not Reported 0.00 N 0.00 S 0.00 S No 0.000 No Precipitation 11/18/2020 08:06 PM 11/18/2020 08:11 PM 0.000 0.000 0.000 0.000 0.000 Not Reported Not Reported
11/21/2020 03:08 AM 19.40 19.04 18.14 42.26 19.40 94.0 Not Reported 0.00 N 0.00 S 0.00 S No 0.000 No Precipitation 11/18/2020 08:06 PM 11/18/2020 08:11 PM 0.000 0.000 0.000 0.000 0.000 Not Reported Not Reported
11/21/2020 03:23 AM 19.22 18.86 17.96 42.26 19.22 94.0 Not Reported 0.00 N 0.00 S 0.00 S No 0.000 No Precipitation 11/18/2020 08:06 PM 11/18/2020 08:11 PM 0.000 0.000 0.000 0.000 0.000 Not Reported Not Reported
11/21/2020 03:38 AM 19.22 18.86 17.78 42.26 19.04 94.0 Not Reported 0.00 N 0.00 S 0.00 S No 0.000 No Precipitation 11/18/2020 08:06 PM 11/18/2020 08:11 PM 0.000 0.000 0.000 0.000 0.000 Not Reported Not Reported
11/21/2020 03:53 AM 19.04 18.68 17.78 42.26 19.04 94.0 Not Reported 0.00 N 0.00 S 0.00 S No 0.000 No Precipitation 11/18/2020 08:06 PM 11/18/2020 08:11 PM 0.000 0.000 0.000 0.000 0.000 Not Reported Not Reported
11/21/2020 04:08 AM 19.04 18.68 17.78 42.26 19.04 94.0 Not Reported 0.22 S 0.00 S 0.67 S No 0.000 No Precipitation 11/18/2020 08:06 PM 11/18/2020 08:11 PM 0.000 0.000 0.000 0.000 0.000 Not Reported Not Reported
11/21/2020 04:23 AM 18.86 18.50 17.42 42.26 18.86 94.0 Not Reported 0.00 N 0.00 S 0.00 S No 0.000 No Precipitation 11/18/2020 08:06 PM 11/18/2020 08:11 PM 0.000 0.000 0.000 0.000 0.000 Not Reported Not Reported
11/21/2020 04:38 AM 19.22 18.86 17.96 42.26 18.86 94.0 Not Reported 0.00 N 0.00 S 0.22 S No 0.000 No Precipitation 11/18/2020 08:06 PM 11/18/2020 08:11 PM 0.000 0.000 0.000 0.000 0.000 Not Reported Not Reported
11/21/2020 04:53 AM 19.22 18.86 17.96 42.26 18.86 94.0 Not Reported 0.00 N 0.00 S 0.00 S No 0.000 No Precipitation 11/18/2020 08:06 PM 11/18/2020 08:11 PM 0.000 0.000 0.000 0.000 0.000 Not Reported Not Reported
11/21/2020 05:09 AM 18.86 18.50 17.60 42.26 18.86 94.0 Not Reported 0.00 N 0.00 S 0.00 S No 0.000 No Precipitation 11/18/2020 08:06 PM 11/18/2020 08:11 PM 0.000 0.000 0.000 0.000 0.000 Not Reported Not Reported
11/21/2020 05:23 AM 18.68 18.32 17.42 42.26 18.68 94.0 Not Reported 0.00 S 0.67 S 0.67 S No 0.000 No Precipitation 11/18/2020 08:06 PM 11/18/2020 08:11 PM 0.000 0.000 0.000 0.000 0.000 Not Reported Not Reported
11/21/2020 05:38 AM 19.22 18.86 17.78 42.26 18.68 94.0 Not Reported 0.00 N 0.00 N 1.57 NW No 0.000 No Precipitation 11/18/2020 08:06 PM 11/18/2020 08:11 PM 0.000 0.000 0.000 0.000 0.000 Not Reported Not Reported
11/21/2020 05:53 AM 18.86 18.50 17.60 42.26 18.68 94.0 Not Reported 1.12 N 0.00 N 1.34 SW No 0.000 No Precipitation 11/18/2020 08:06 PM 11/18/2020 08:11 PM 0.000 0.000 0.000 0.000 0.000 Not Reported Not Reported
11/21/2020 06:08 AM 19.04 18.68 17.60 42.26 18.68 94.0 Not Reported 0.00 N 0.00 N 0.89 N No 0.000 No Precipitation 11/18/2020 08:06 PM 11/18/2020 08:11 PM 0.000 0.000 0.000 0.000 0.000 Not Reported Not Reported
11/21/2020 06:23 AM 18.68 18.32 17.42 42.26 18.68 94.0 Not Reported 0.00 N 0.00 N 0.00 N No 0.000 No Precipitation 11/18/2020 08:06 PM 11/18/2020 08:11 PM 0.000 0.000 0.000 0.000 0.000 Not Reported Not Reported
11/21/2020 06:38 AM 19.04 18.68 17.60 42.26 18.68 94.0 Not Reported 0.00 N 0.00 N 0.00 N No 0.000 No Precipitation 11/18/2020 08:06 PM 11/18/2020 08:11 PM 0.000 0.000 0.000 0.000 0.000 Not Reported Not Reported
11/21/2020 06:53 AM 19.04 18.68 17.78 42.26 18.68 94.0 Not Reported 0.00 N 0.00 N 1.12 W No 0.000 No Precipitation 11/18/2020 08:06 PM 11/18/2020 08:11 PM 0.000 0.000 0.000 0.000 0.000 Not Reported Not Reported
11/21/2020 07:08 AM 18.86 18.32 17.42 42.26 18.68 94.0 Not Reported 0.00 N 0.00 N 0.00 N No 0.000 No Precipitation 11/18/2020 08:06 PM 11/18/2020 08:11 PM 0.000 0.000 0.000 0.000 0.000 Not Reported Not Reported
11/21/2020 07:23 AM 19.22 18.86 17.78 42.26 18.68 94.0 Not Reported 0.00 N 0.00 N 0.00 N No 0.000 No Precipitation 11/18/2020 08:06 PM 11/18/2020 08:11 PM 0.000 0.000 0.000 0.000 0.000 Not Reported Not Reported
11/21/2020 07:39 AM 19.40 19.04 18.14 42.26 18.68 94.0 Not Reported 0.00 N 0.00 N 0.00 N No 0.000 No Precipitation 11/18/2020 08:06 PM 11/18/2020 08:11 PM 0.000 0.000 0.000 0.000 0.000 Not Reported Not Reported
11/21/2020 07:53 AM 20.12 19.76 18.86 42.26 18.68 94.0 Not Reported 0.00 N 0.00 N 0.00 N No 0.000 No Precipitation 11/18/2020 08:06 PM 11/18/2020 08:11 PM 0.000 0.000 0.000 0.000 0.000 Not Reported Not Reported
11/21/2020 08:09 AM 21.56 21.20 20.48 42.26 18.68 94.0 Not Reported 0.00 N 0.00 N 0.00 N No 0.000 No Precipitation 11/18/2020 08:06 PM 11/18/2020 08:11 PM 0.000 0.000 0.000 0.000 0.000 Not Reported Not Reported
11/21/2020 08:23 AM 23.54 23.18 22.46 42.26 18.68 95.0 Not Reported 0.00 N 0.00 N 0.00 N No 0.000 No Precipitation 11/18/2020 08:06 PM 11/18/2020 08:11 PM 0.000 0.000 0.000 0.000 0.000 Not Reported Not Reported
11/21/2020 08:38 AM 25.52 25.16 24.44 42.26 18.68 95.0 Not Reported 0.00 N 0.00 NW 0.00 N No 0.000 No Precipitation 11/18/2020 08:06 PM 11/18/2020 08:11 PM 0.000 0.000 0.000 0.000 0.000 Not Reported Not Reported
11/21/2020 08:53 AM 27.68 26.96 26.06 42.26 18.68 93.0 Not Reported 0.45 SE 0.00 W 1.79 E No 0.000 No Precipitation 11/18/2020 08:06 PM 11/18/2020 08:11 PM 0.000 0.000 0.000 0.000 0.000 Not Reported Not Reported
11/21/2020 09:08 AM 30.20 28.58 25.52 42.26 18.68 82.0 Not Reported 1.57 S 0.22 S 1.57 SE No 0.000 No Precipitation 11/18/2020 08:06 PM 11/18/2020 08:11 PM 0.000 0.000 0.000 0.000 0.000 Not Reported Not Reported
11/21/2020 09:23 AM 32.54 29.66 24.08 42.26 18.68 70.0 Not Reported 0.22 S 3.58 SE 4.25 S No 0.000 No Precipitation 11/18/2020 08:06 PM 11/18/2020 08:11 PM 0.000 0.000 0.000 0.000 0.000 Not Reported Not Reported
11/21/2020 09:39 AM 33.80 30.74 25.34 42.26 18.68 70.0 Not Reported 1.12 E 0.67 E 2.91 E No 0.000 No Precipitation 11/18/2020 08:06 PM 11/18/2020 08:11 PM 0.000 0.000 0.000 0.000 0.000 Not Reported Not Reported
11/21/2020 09:53 AM 33.98 30.56 24.08 42.26 18.68 65.0 Not Reported 0.22 E 0.89 N 3.13 S No 0.000 No Precipitation 11/18/2020 08:06 PM 11/18/2020 08:11 PM 0.000 0.000 0.000 0.000 0.000 Not Reported Not Reported
11/21/2020 10:08 AM 34.34 30.92 24.80 42.26 18.68 67.0 Not Reported 4.70 SE 1.79 N 5.59 S No 0.000 No Precipitation 11/18/2020 08:06 PM 11/18/2020 08:11 PM 0.000 0.000 0.000 0.000 0.000 Not Reported Not Reported
11/21/2020 10:23 AM 35.78 31.64 24.44 42.26 18.68 62.0 Not Reported 2.24 SE 3.80 N 6.26 S No 0.000 No Precipitation 11/18/2020 08:06 PM 11/18/2020 08:11 PM 0.000 0.000 0.000 0.000 0.000 Not Reported Not Reported
11/21/2020 10:38 AM 36.68 32.18 24.62 42.26 18.68 60.0 Not Reported 2.91 E 3.58 E 4.70 NW No 0.000 No Precipitation 11/18/2020 08:06 PM 11/18/2020 08:11 PM 0.000 0.000 0.000 0.000 0.000 Not Reported Not Reported
11/21/2020 10:53 AM 36.14 31.82 23.72 42.26 18.68 59.0 Not Reported 3.58 E 3.13 E 5.37 E No 0.000 No Precipitation 11/18/2020 08:06 PM 11/18/2020 08:11 PM 0.000 0.000 0.000 0.000 0.000 Not Reported Not Reported
11/21/2020 11:08 AM 37.22 32.36 24.08 42.26 18.68 57.0 Not Reported 2.01 E 1.57 SE 4.25 E No 0.000 No Precipitation 11/18/2020 08:06 PM 11/18/2020 08:11 PM 0.000 0.000 0.000 0.000 0.000 Not Reported Not Reported
11/21/2020 11:23 AM 38.48 33.44 25.52 42.26 18.68 58.0 Not Reported 3.13 E 2.24 N 5.14 E No 0.000 No Precipitation 11/18/2020 08:06 PM 11/18/2020 08:11 PM 0.000 0.000 0.000 0.000 0.000 Not Reported Not Reported
11/21/2020 11:38 AM 37.94 33.08 24.80 42.26 18.68 58.0 Not Reported 4.47 SE 4.70 SE 5.59 SW No 0.000 No Precipitation 11/18/2020 08:06 PM 11/18/2020 08:11 PM 0.000 0.000 0.000 0.000 0.000 Not Reported Not Reported
11/21/2020 11:54 AM 39.38 33.98 24.80 42.26 18.68 56.0 Not Reported 2.46 E 2.01 N 5.82 SE No 0.000 No Precipitation 11/18/2020 08:06 PM 11/18/2020 08:11 PM 0.000 0.000 0.000 0.000 0.000 Not Reported Not Reported
11/21/2020 12:08 PM 38.12 33.08 24.62 42.26 18.68 57.0 Not Reported 2.24 S 2.68 S 5.59 E No 0.000 No Precipitation 11/18/2020 08:06 PM 11/18/2020 08:11 PM 0.000 0.000 0.000 0.000 0.000 Not Reported Not Reported
11/21/2020 12:23 PM 39.20 33.62 24.62 42.26 18.68 54.0 Not Reported 2.91 SE 2.68 S 5.59 E No 0.000 No Precipitation 11/18/2020 08:06 PM 11/18/2020 08:11 PM 0.000 0.000 0.000 0.000 0.000 Not Reported Not Reported
11/21/2020 12:38 PM 39.74 34.16 25.52 42.26 18.68 56.0 Not Reported 4.03 E 3.36 S 6.04 E No 0.000 No Precipitation 11/18/2020 08:06 PM 11/18/2020 08:11 PM 0.000 0.000 0.000 0.000 0.000 Not Reported Not Reported
11/21/2020 12:53 PM 39.92 34.52 26.06 42.26 18.68 56.0 Not Reported 3.13 SE 1.34 E 5.59 SE No 0.000 No Precipitation 11/18/2020 08:06 PM 11/18/2020 08:11 PM 0.000 0.000 0.000 0.000 0.000 Not Reported Not Reported
11/21/2020 01:08 PM 40.28 34.52 25.34 42.26 18.68 54.0 Not Reported 4.03 E 3.13 NE 6.26 NE No 0.000 No Precipitation 11/18/2020 08:06 PM 11/18/2020 08:11 PM 0.000 0.000 0.000 0.000 0.000 Not Reported Not Reported
11/21/2020 01:23 PM 39.38 33.80 24.62 42.26 18.68 54.0 Not Reported 2.46 SE 1.12 SE 5.14 E No 0.000 No Precipitation 11/18/2020 08:06 PM 11/18/2020 08:11 PM 0.000 0.000 0.000 0.000 0.000 Not Reported Not Reported
11/21/2020 01:38 PM 40.46 34.34 24.62 42.26 18.68 52.0 Not Reported 1.79 SE 3.58 E 5.82 NE No 0.000 No Precipitation 11/18/2020 08:06 PM 11/18/2020 08:11 PM 0.000 0.000 0.000 0.000 0.000 Not Reported Not Reported
11/21/2020 01:53 PM 40.64 34.52 24.44 42.26 18.68 51.0 Not Reported 3.80 E 2.46 S 5.37 N No 0.000 No Precipitation 11/18/2020 08:06 PM 11/18/2020 08:11 PM 0.000 0.000 0.000 0.000 0.000 Not Reported Not Reported
11/21/2020 02:08 PM 39.74 33.98 24.26 42.26 18.68 53.0 Not Reported 3.80 NE 5.59 NE 5.59 NE No 0.000 No Precipitation 11/18/2020 08:06 PM 11/18/2020 08:11 PM 0.000 0.000 0.000 0.000 0.000 Not Reported Not Reported
11/21/2020 02:23 PM 40.10 34.16 24.08 42.26 18.68 51.0 Not Reported 2.01 N 5.37 S 5.37 S No 0.000 No Precipitation 11/18/2020 08:06 PM 11/18/2020 08:11 PM 0.000 0.000 0.000 0.000 0.000 Not Reported Not Reported
11/21/2020 02:38 PM 40.28 33.98 23.36 42.26 18.68 50.0 Not Reported 2.24 SE 1.79 NW 5.37 NE No 0.000 No Precipitation 11/18/2020 08:06 PM 11/18/2020 08:11 PM 0.000 0.000 0.000 0.000 0.000 Not Reported Not Reported
11/21/2020 02:53 PM 40.46 33.98 23.36 41.90 18.68 49.0 Not Reported 1.57 SE 3.36 N 3.36 N No 0.000 No Precipitation 11/18/2020 08:06 PM 11/18/2020 08:11 PM 0.000 0.000 0.000 0.000 0.000 Not Reported Not Reported
11/21/2020 03:08 PM 39.74 33.62 23.54 41.36 18.68 51.0 Not Reported 1.79 NE 2.24 NE 4.92 SE No 0.000 No Precipitation 11/18/2020 08:06 PM 11/18/2020 08:11 PM 0.000 0.000 0.000 0.000 0.000 Not Reported Not Reported
11/21/2020 03:23 PM 39.74 33.80 23.54 41.18 18.68 51.0 Not Reported 0.45 NW 2.01 E 4.25 E No 0.000 No Precipitation 11/18/2020 08:06 PM 11/18/2020 08:11 PM 0.000 0.000 0.000 0.000 0.000 Not Reported Not Reported
11/21/2020 03:38 PM 38.30 33.08 24.08 41.18 18.68 55.0 Not Reported 0.89 SE 1.34 E 4.92 SE No 0.000 No Precipitation 11/18/2020 08:06 PM 11/18/2020 08:11 PM 0.000 0.000 0.000 0.000 0.000 Not Reported Not Reported
11/21/2020 03:53 PM 37.40 32.54 23.90 41.18 18.68 57.0 Not Reported 1.12 N 4.03 E 4.03 E No 0.000 No Precipitation 11/18/2020 08:06 PM 11/18/2020 08:11 PM 0.000 0.000 0.000 0.000 0.000 Not Reported Not Reported
11/21/2020 04:09 PM 35.78 31.64 24.44 41.18 18.68 62.0 Not Reported 0.89 NW 1.12 SW 1.79 NE No 0.000 No Precipitation 11/18/2020 08:06 PM 11/18/2020 08:11 PM 0.000 0.000 0.000 0.000 0.000 Not Reported Not Reported
11/21/2020 04:23 PM 32.90 30.38 25.70 41.18 18.68 73.0 Not Reported 0.45 NW 0.00 NW 1.57 NW No 0.000 No Precipitation 11/18/2020 08:06 PM 11/18/2020 08:11 PM 0.000 0.000 0.000 0.000 0.000 Not Reported Not Reported
11/21/2020 04:38 PM 31.64 29.30 24.98 41.18 18.68 76.0 Not Reported 0.00 N 0.00 W 1.57 NW No 0.000 No Precipitation 11/18/2020 08:06 PM 11/18/2020 08:11 PM 0.000 0.000 0.000 0.000 0.000 Not Reported Not Reported
11/21/2020 04:53 PM 30.02 28.04 24.44 41.18 18.68 79.0 Not Reported 0.00 N 0.00 W 0.89 W No 0.000 No Precipitation 11/18/2020 08:06 PM 11/18/2020 08:11 PM 0.000 0.000 0.000 0.000 0.000 Not Reported Not Reported
11/21/2020 05:08 PM 29.12 27.32 24.08 41.18 18.68 81.0 Not Reported 0.22 NW 0.45 NW 1.79 NW No 0.000 No Precipitation 11/18/2020 08:06 PM 11/18/2020 08:11 PM 0.000 0.000 0.000 0.000 0.000 Not Reported Not Reported
11/21/2020 05:23 PM 28.40 26.96 24.08 41.18 18.68 83.0 Not Reported 0.89 N 0.89 N 1.12 N No 0.000 No Precipitation 11/18/2020 08:06 PM 11/18/2020 08:11 PM 0.000 0.000 0.000 0.000 0.000 Not Reported Not Reported
11/21/2020 05:38 PM 28.04 26.78 24.26 41.18 18.68 85.0 Not Reported 0.67 NW 0.45 NW 0.89 NW No 0.000 No Precipitation 11/18/2020 08:06 PM 11/18/2020 08:11 PM 0.000 0.000 0.000 0.000 0.000 Not Reported Not Reported
11/21/2020 05:53 PM 27.32 26.24 24.08 41.18 18.68 87.0 Not Reported 0.00 N 0.45 NW 0.45 NW No 0.000 No Precipitation 11/18/2020 08:06 PM 11/18/2020 08:11 PM 0.000 0.000 0.000 0.000 0.000 Not Reported Not Reported
11/21/2020 06:09 PM 26.96 26.06 24.26 41.18 18.68 89.0 Not Reported 0.67 NW 0.45 NW 1.12 NW No 0.000 No Precipitation 11/18/2020 08:06 PM 11/18/2020 08:11 PM 0.000 0.000 0.000 0.000 0.000 Not Reported Not Reported
11/21/2020 06:23 PM 26.96 25.88 24.08 41.18 18.68 88.0 Not Reported 0.00 N 0.00 NW 0.67 NW No 0.000 No Precipitation 11/18/2020 08:06 PM 11/18/2020 08:11 PM 0.000 0.000 0.000 0.000 0.000 Not Reported Not Reported
11/21/2020 06:39 PM 26.24 25.52 23.90 41.18 18.68 90.0 Not Reported 0.00 N 0.00 NW 0.00 NW No 0.000 No Precipitation 11/18/2020 08:06 PM 11/18/2020 08:11 PM 0.000 0.000 0.000 0.000 0.000 Not Reported Not Reported
11/21/2020 06:53 PM 25.88 25.16 23.72 41.18 18.68 91.0 Not Reported 0.00 N 0.00 NW 0.00 NW No 0.000 No Precipitation 11/18/2020 08:06 PM 11/18/2020 08:11 PM 0.000 0.000 0.000 0.000 0.000 Not Reported Not Reported
11/21/2020 07:08 PM 25.70 25.16 23.90 41.18 18.68 92.0 Not Reported 0.00 N 0.00 NW 0.22 NW No 0.000 No Precipitation 11/18/2020 08:06 PM 11/18/2020 08:11 PM 0.000 0.000 0.000 0.000 0.000 Not Reported Not Reported
11/21/2020 07:23 PM 25.52 24.98 23.72 41.18 18.68 93.0 Not Reported 0.00 N 0.00 NW 1.34 NW No 0.000 No Precipitation 11/18/2020 08:06 PM 11/18/2020 08:11 PM 0.000 0.000 0.000 0.000 0.000 Not Reported Not Reported
11/21/2020 07:38 PM 25.16 24.80 23.72 41.18 18.68 93.0 Not Reported 0.00 N 0.00 NW 0.00 NW No 0.000 No Precipitation 11/18/2020 08:06 PM 11/18/2020 08:11 PM 0.000 0.000 0.000 0.000 0.000 Not Reported Not Reported
11/21/2020 07:53 PM 25.16 24.62 23.72 41.18 18.68 94.0 Not Reported 0.00 N 0.00 NW 0.00 NW No 0.000 No Precipitation 11/18/2020 08:06 PM 11/18/2020 08:11 PM 0.000 0.000 0.000 0.000 0.000 Not Reported Not Reported
11/21/2020 08:08 PM 24.80 24.26 23.54 41.18 18.68 94.0 Not Reported 0.00 N 0.00 NW 0.45 NW No 0.000 No Precipitation 11/18/2020 08:06 PM 11/18/2020 08:11 PM 0.000 0.000 0.000 0.000 0.000 Not Reported Not Reported
11/21/2020 08:23 PM 24.62 24.26 23.54 41.18 18.68 95.0 Not Reported 0.00 N 0.00 NW 0.45 NW No 0.000 No Precipitation 11/18/2020 08:06 PM 11/18/2020 08:11 PM 0.000 0.000 0.000 0.000 0.000 Not Reported Not Reported
11/21/2020 08:38 PM 24.44 24.08 23.36 41.18 18.68 95.0 Not Reported 0.00 N 0.00 NW 0.00 NW No 0.000 No Precipitation 11/18/2020 08:06 PM 11/18/2020 08:11 PM 0.000 0.000 0.000 0.000 0.000 Not Reported Not Reported
11/21/2020 08:53 PM 24.08 23.90 23.18 41.18 18.68 96.0 Not Reported 0.00 N 0.00 NW 0.45 NW No 0.000 No Precipitation 11/18/2020 08:06 PM 11/18/2020 08:11 PM 0.000 0.000 0.000 0.000 0.000 Not Reported Not Reported
11/21/2020 09:09 PM 23.90 23.54 23.00 41.18 18.68 96.0 Not Reported 0.00 N 0.00 NW 0.00 NW No 0.000 No Precipitation 11/18/2020 08:06 PM 11/18/2020 08:11 PM 0.000 0.000 0.000 0.000 0.000 Not Reported Not Reported
11/21/2020 09:23 PM 23.72 23.36 22.82 41.18 18.68 96.0 Not Reported 0.00 NW 0.00 NW 0.22 NW No 0.000 No Precipitation 11/18/2020 08:06 PM 11/18/2020 08:11 PM 0.000 0.000 0.000 0.000 0.000 Not Reported Not Reported
11/21/2020 09:38 PM 23.36 23.18 22.64 41.18 18.68 96.0 Not Reported 0.00 N 0.00 NW 0.00 NW No 0.000 No Precipitation 11/18/2020 08:06 PM 11/18/2020 08:11 PM 0.000 0.000 0.000 0.000 0.000 Not Reported Not Reported
11/21/2020 09:53 PM 23.36 23.00 22.46 41.18 18.68 96.0 Not Reported 0.00 N 0.00 NW 0.00 NW No 0.000 No Precipitation 11/18/2020 08:06 PM 11/18/2020 08:11 PM 0.000 0.000 0.000 0.000 0.000 Not Reported Not Reported
11/21/2020 10:08 PM 23.36 23.00 22.46 41.18 18.68 96.0 Not Reported 0.00 NW 0.00 NW 0.45 NW No 0.000 No Precipitation 11/18/2020 08:06 PM 11/18/2020 08:11 PM 0.000 0.000 0.000 0.000 0.000 Not Reported Not Reported
11/21/2020 10:23 PM 23.18 23.00 22.46 41.18 18.68 96.0 Not Reported 0.00 N 0.00 NW 0.22 NW No 0.000 No Precipitation 11/18/2020 08:06 PM 11/18/2020 08:11 PM 0.000 0.000 0.000 0.000 0.000 Not Reported Not Reported
11/21/2020 10:38 PM 23.00 22.64 22.10 41.18 18.68 96.0 Not Reported 0.00 NW 0.22 NW 0.22 NW No 0.000 No Precipitation 11/18/2020 08:06 PM 11/18/2020 08:11 PM 0.000 0.000 0.000 0.000 0.000 Not Reported Not Reported
11/21/2020 10:53 PM 22.82 22.64 21.92 41.18 18.68 96.0 Not Reported 0.00 N 0.00 NW 0.00 NW No 0.000 No Precipitation 11/18/2020 08:06 PM 11/18/2020 08:11 PM 0.000 0.000 0.000 0.000 0.000 Not Reported Not Reported
11/21/2020 11:08 PM 22.82 22.46 21.92 41.18 18.68 96.0 Not Reported 0.00 N 0.00 NW 0.89 NW No 0.000 No Precipitation 11/18/2020 08:06 PM 11/18/2020 08:11 PM 0.000 0.000 0.000 0.000 0.000 Not Reported Not Reported
11/21/2020 11:23 PM 22.64 22.46 21.74 41.18 18.68 96.0 Not Reported 0.00 N 0.00 NW 0.22 NW No 0.000 No Precipitation 11/18/2020 08:06 PM 11/18/2020 08:11 PM 0.000 0.000 0.000 0.000 0.000 Not Reported Not Reported
11/21/2020 11:38 PM 22.64 22.46 21.92 41.18 18.68 96.0 Not Reported 0.00 N 0.00 NW 0.45 NW No 0.000 No Precipitation 11/18/2020 08:06 PM 11/18/2020 08:11 PM 0.000 0.000 0.000 0.000 0.000 Not Reported Not Reported
11/21/2020 11:53 PM 22.28 22.10 21.56 41.18 18.68 96.0 Not Reported 0.00 N 0.00 NW 0.45 NW No 0.000 No Precipitation 11/18/2020 08:06 PM 11/18/2020 08:11 PM 0.000 0.000 0.000 0.000 0.000 Not Reported Not Reported